Time;durP1;ratioP1;P1;durP2;ratioP2;P2;SDS_P1;SDS_P2;PMS_P1;PMS_P2;Temp;Humidity;BMP_temperature;BMP_pressure;BME280_temperature;BME280_humidity;BME280_pressure;Samples;Min_cycle;Max_cycle;Signal;HPM_P1;HPM_P2
2023/01/10 00:00:07;;;;;;;;;;;;;;;6.47;92.64;101205.97;5116427;28;19919;-90
2023/01/10 00:02:32;;;;;;;;;;;;;;;6.47;92.19;101204.22;5115326;28;19920;-90
2023/01/10 00:04:57;;;;;;;;;;;;;;;6.48;93.00;101210.28;5099328;28;19983;-90
2023/01/10 00:07:23;;;;;;;;;;;;;;;6.48;92.55;101216.34;5116100;28;19912;-90
2023/01/10 00:09:48;;;;;;;;;;;;;;;6.49;91.85;101217.19;5099393;28;19942;-90
2023/01/10 00:14:57;;;;;;;;;;;;;;;6.50;92.73;101213.72;5121415;28;19958;-90
2023/01/10 00:17:23;;;;;;;;;;;;;;;6.50;91.91;101214.56;5102882;28;19919;-90
2023/01/10 00:19:48;;;;;;;;;;;;;;;6.51;91.27;101218.91;5119695;28;20262;-90
2023/01/10 00:22:14;;;;;;;;;;;;;;;6.52;91.68;101219.75;5120259;28;19941;-90
2023/01/10 00:24:40;;;;;;;;;;;;;;;6.53;92.05;101226.66;5102516;28;20110;-90
2023/01/10 00:27:05;;;;;;;;;;;;;;;6.53;92.13;101229.25;5119996;28;20126;-90
2023/01/10 00:29:30;;;;;;;;;;;;;;;6.52;91.77;101241.44;5102786;28;20149;-90
2023/01/10 00:31:56;;;;;;;;;;;;;;;6.54;92.29;101246.59;5102423;28;20126;-90
2023/01/10 00:34:21;;;;;;;;;;;;;;;6.56;92.38;101254.41;5102428;28;19919;-90
2023/01/10 00:36:47;;;;;;;;;;;;;;;6.55;92.64;101248.34;5120783;28;19923;-90
2023/01/10 00:39:13;;;;;;;;;;;;;;;6.56;92.43;101259.59;5103087;28;19920;-90
2023/01/10 00:44:23;;;;;;;;;;;;;;;6.57;92.17;101259.56;5120878;28;19939;-90
2023/01/10 00:46:48;;;;;;;;;;;;;;;6.57;92.29;101264.78;5119217;28;20222;-90
2023/01/10 00:49:15;;;;;;;;;;;;;;;6.59;92.42;101264.75;5102434;28;19931;-90
2023/01/10 00:51:40;;;;;;;;;;;;;;;6.59;92.59;101268.22;5102252;28;19931;-90
2023/01/10 00:54:07;;;;;;;;;;;;;;;6.60;91.70;101266.47;5120759;28;19912;-90
2023/01/10 00:56:32;;;;;;;;;;;;;;;6.61;91.97;101276.00;5120495;28;19916;-90
2023/01/10 00:58:58;;;;;;;;;;;;;;;6.62;92.46;101281.19;5102557;28;20204;-90
2023/01/10 01:01:23;;;;;;;;;;;;;;;6.63;92.72;101284.63;5119229;28;19920;-90
2023/01/10 01:03:48;;;;;;;;;;;;;;;6.64;92.67;101288.94;5120010;28;20115;-90
2023/01/10 01:06:14;;;;;;;;;;;;;;;6.64;93.01;101282.00;5119240;28;19915;-90
2023/01/10 01:08:39;;;;;;;;;;;;;;;6.64;92.43;101289.81;5118975;28;19912;-90
2023/01/10 01:11:04;;;;;;;;;;;;;;;6.64;91.98;101288.94;5119315;28;19939;-90
2023/01/10 01:13:30;;;;;;;;;;;;;;;6.66;92.33;101293.25;5102112;28;19958;-90
2023/01/10 01:15:59;;;;;;;;;;;;;;;6.65;92.33;101296.72;5118700;28;19928;-90
2023/01/10 01:18:24;;;;;;;;;;;;;;;6.66;91.85;101298.47;5118521;28;20258;-90
2023/01/10 01:20:55;;;;;;;;;;;;;;;6.67;91.74;101302.75;5101521;28;19918;-90
2023/01/10 01:23:20;;;;;;;;;;;;;;;6.68;92.22;101301.88;5118860;28;19915;-90
2023/01/10 01:25:48;;;;;;;;;;;;;;;6.69;92.55;101289.72;5101289;28;19920;-90
2023/01/10 01:28:14;;;;;;;;;;;;;;;6.68;92.32;101295.84;5119222;28;19920;-90
2023/01/10 01:30:39;;;;;;;;;;;;;;;6.69;92.13;101302.75;5118157;28;19922;-90
2023/01/10 01:33:04;;;;;;;;;;;;;;;6.70;92.39;101312.28;5119705;28;20188;-90
2023/01/10 01:35:32;;;;;;;;;;;;;;;6.69;92.91;101306.22;5118524;28;19908;-90
2023/01/10 01:37:57;;;;;;;;;;;;;;;6.69;93.17;101308.81;5101911;28;20083;-90
2023/01/10 01:40:22;;;;;;;;;;;;;;;6.70;92.52;101314.88;5101662;28;19999;-90
2023/01/10 01:42:48;;;;;;;;;;;;;;;6.70;92.25;101313.13;5101149;28;20211;-90
2023/01/10 01:45:13;;;;;;;;;;;;;;;6.71;92.45;101313.97;5118613;28;19918;-90
2023/01/10 01:47:44;;;;;;;;;;;;;;;6.72;92.35;101328.72;5118156;28;19969;-89
2023/01/10 01:50:19;;;;;;;;;;;;;;;6.72;92.83;101326.13;5119666;28;19916;-90
2023/01/10 01:52:46;;;;;;;;;;;;;;;6.71;92.58;101330.47;5117591;28;19959;-90
2023/01/10 01:55:12;;;;;;;;;;;;;;;6.72;92.04;101336.53;5119628;27;19908;-90
2023/01/10 01:57:37;;;;;;;;;;;;;;;6.72;92.13;101339.97;5118107;28;19926;-90
2023/01/10 02:00:03;;;;;;;;;;;;;;;6.71;91.44;101346.09;5101220;28;19919;-90
2023/01/10 02:05:02;;;;;;;;;;;;;;;6.73;92.10;101349.53;5138702;27;19907;-90
2023/01/10 02:07:33;;;;;;;;;;;;;;;6.74;92.55;101355.59;5140918;27;19968;-90
2023/01/10 02:10:18;;;;;;;;;;;;;;;6.74;92.51;101345.16;5138849;27;20000;-90
2023/01/10 02:12:45;;;;;;;;;;;;;;;6.73;92.38;101346.91;5137465;27;20131;-90
2023/01/10 02:15:11;;;;;;;;;;;;;;;6.75;91.82;101340.81;5138538;27;19980;-90
2023/01/10 02:17:37;;;;;;;;;;;;;;;6.74;91.75;101355.59;5137873;27;19912;-90
2023/01/10 02:20:11;;;;;;;;;;;;;;;6.75;91.17;101344.31;5138356;27;20095;-90
2023/01/10 02:22:38;;;;;;;;;;;;;;;6.77;92.00;101346.84;5137937;27;19915;-90
2023/01/10 02:25:22;;;;;;;;;;;;;;;6.77;91.22;101349.44;5138230;27;19915;-90
2023/01/10 02:27:54;;;;;;;;;;;;;;;6.78;91.73;101356.38;5137996;27;19914;-90
2023/01/10 02:30:31;;;;;;;;;;;;;;;6.78;92.02;101354.63;5137966;27;19918;-90
2023/01/10 02:32:59;;;;;;;;;;;;;;;6.79;92.11;101365.94;5137752;27;19912;-90
2023/01/10 02:35:32;;;;;;;;;;;;;;;6.78;91.64;101364.19;5138066;27;19919;-90
2023/01/10 02:38:13;;;;;;;;;;;;;;;6.78;91.58;101372.00;5137857;27;19915;-90
2023/01/10 02:40:55;;;;;;;;;;;;;;;6.79;92.25;101373.75;5138709;27;19915;-90
2023/01/10 02:43:22;;;;;;;;;;;;;;;6.77;91.92;101381.56;5139333;27;19922;-90
2023/01/10 02:46:01;;;;;;;;;;;;;;;6.78;91.77;101385.03;5138902;27;19919;-90
2023/01/10 02:48:26;;;;;;;;;;;;;;;6.77;90.94;101385.91;5137369;27;20174;-90
2023/01/10 02:50:52;;;;;;;;;;;;;;;6.77;91.42;101389.38;5120232;27;19946;-90
2023/01/10 02:53:23;;;;;;;;;;;;;;;6.78;91.35;101398.03;5139257;27;19919;-90
2023/01/10 02:55:51;;;;;;;;;;;;;;;6.78;92.08;101390.25;5137608;27;19915;-90
2023/01/10 02:58:16;;;;;;;;;;;;;;;6.78;92.33;101392.84;5137852;27;19982;-90
2023/01/10 03:00:53;;;;;;;;;;;;;;;6.78;92.24;101398.91;5137642;27;19922;-90
2023/01/10 03:03:29;;;;;;;;;;;;;;;6.79;90.93;101386.75;5137292;27;20361;-90
2023/01/10 03:06:05;;;;;;;;;;;;;;;6.81;91.61;101387.59;5137126;27;19911;-90
2023/01/10 03:08:30;;;;;;;;;;;;;;;6.81;91.94;101393.66;5137264;27;19907;-90
2023/01/10 03:10:55;;;;;;;;;;;;;;;6.80;92.45;101397.13;5137386;27;19907;-90
2023/01/10 03:13:34;;;;;;;;;;;;;;;6.81;92.47;101392.81;5137240;27;19957;-90
2023/01/10 03:16:01;;;;;;;;;;;;;;;6.81;92.88;101400.59;5138759;27;19937;-90
2023/01/10 03:18:29;;;;;;;;;;;;;;;6.81;92.97;101392.81;5136956;27;19923;-90
2023/01/10 03:20:56;;;;;;;;;;;;;;;6.80;93.42;101399.72;5137327;27;19908;-90
2023/01/10 03:23:23;;;;;;;;;;;;;;;6.79;92.63;101410.19;5138712;27;19907;-90
2023/01/10 03:25:49;;;;;;;;;;;;;;;6.79;92.84;101403.22;5137002;27;19916;-90
2023/01/10 03:28:14;;;;;;;;;;;;;;;6.79;92.66;101415.41;5138680;27;19931;-90
2023/01/10 03:30:42;;;;;;;;;;;;;;;6.78;91.88;101400.66;5137801;27;19929;-90
2023/01/10 03:33:10;;;;;;;;;;;;;;;6.78;91.88;101403.25;5137427;27;19919;-90
2023/01/10 03:35:56;;;;;;;;;;;;;;;6.79;92.38;101415.41;5136669;28;20286;-90
2023/01/10 03:38:31;;;;;;;;;;;;;;;6.77;93.32;101412.81;5095966;28;19982;-90
2023/01/10 03:41:01;;;;;;;;;;;;;;;6.77;92.67;101417.13;5136800;28;19916;-90
2023/01/10 03:46:34;;;;;;;;;;;;;;;6.76;92.06;101425.84;5138399;28;19922;-90
2023/01/10 03:49:02;;;;;;;;;;;;;;;6.74;93.02;101431.06;5141122;27;19919;-89
2023/01/10 03:51:28;;;;;;;;;;;;;;;6.75;92.55;101444.94;5141245;27;19992;-89
2023/01/10 03:53:53;;;;;;;;;;;;;;;6.73;92.37;101440.63;5123758;27;19915;-89
2023/01/10 03:56:19;;;;;;;;;;;;;;;6.75;92.94;101444.94;5123944;27;20008;-89
2023/01/10 03:58:44;;;;;;;;;;;;;;;6.73;92.59;101438.03;5121811;27;19934;-89
2023/01/10 04:01:09;;;;;;;;;;;;;;;6.73;91.77;101458.84;5120757;28;19931;-89
2023/01/10 04:03:34;;;;;;;;;;;;;;;6.73;92.61;101445.84;5119973;28;19923;-89
2023/01/10 04:06:00;;;;;;;;;;;;;;;6.74;92.65;101446.69;5103214;28;19920;-89
2023/01/10 04:08:25;;;;;;;;;;;;;;;6.75;93.39;101453.63;5102988;28;19927;-89
2023/01/10 04:10:50;;;;;;;;;;;;;;;6.75;92.87;101451.03;5103001;28;20281;-89
2023/01/10 04:13:16;;;;;;;;;;;;;;;6.76;93.52;101446.69;5103519;28;19953;-89
2023/01/10 04:15:41;;;;;;;;;;;;;;;6.76;93.90;101452.72;5103257;28;19949;-89
2023/01/10 04:18:07;;;;;;;;;;;;;;;6.75;92.67;101451.03;5103142;28;20231;-89
2023/01/10 04:20:32;;;;;;;;;;;;;;;6.76;92.85;101459.69;5102701;28;19999;-89
2023/01/10 04:22:57;;;;;;;;;;;;;;;6.76;94.13;101470.97;5103277;28;20225;-89
2023/01/10 04:25:23;;;;;;;;;;;;;;;6.76;93.95;101481.38;5119851;28;20103;-89
2023/01/10 04:27:49;;;;;;;;;;;;;;;6.78;94.29;101476.16;5119940;28;19914;-89
2023/01/10 04:30:14;;;;;;;;;;;;;;;6.79;94.22;101465.72;5119993;28;19911;-89
2023/01/10 04:32:40;;;;;;;;;;;;;;;6.79;94.04;101465.72;5102435;28;19912;-89
2023/01/10 04:35:05;;;;;;;;;;;;;;;6.79;93.96;101447.50;5102576;28;20177;-89
2023/01/10 04:37:30;;;;;;;;;;;;;;;6.80;93.81;101456.16;5102710;28;19988;-89
2023/01/10 04:39:56;;;;;;;;;;;;;;;6.80;93.51;101458.75;5102336;28;19960;-89
2023/01/10 04:42:22;;;;;;;;;;;;;;;6.77;93.37;101464.88;5119608;28;19916;-89
2023/01/10 04:44:47;;;;;;;;;;;;;;;6.77;93.45;101471.81;5119393;28;19931;-89
2023/01/10 04:47:13;;;;;;;;;;;;;;;6.77;93.40;101479.63;5119772;28;19969;-89
2023/01/10 04:49:38;;;;;;;;;;;;;;;6.77;93.66;101485.72;5101767;28;19920;-89
2023/01/10 04:52:03;;;;;;;;;;;;;;;6.75;93.14;101499.63;5102527;28;20237;-89
2023/01/10 04:54:29;;;;;;;;;;;;;;;6.70;92.02;101508.34;5102509;28;19977;-89
2023/01/10 04:56:54;;;;;;;;;;;;;;;6.70;92.62;101515.31;5119215;28;20274;-89
2023/01/10 04:59:19;;;;;;;;;;;;;;;6.69;92.73;101517.06;5101438;28;19958;-89
2023/01/10 05:01:45;;;;;;;;;;;;;;;6.67;92.71;101520.53;5119214;28;20229;-89
2023/01/10 05:04:10;;;;;;;;;;;;;;;6.64;91.96;101518.88;5102229;28;20175;-89
2023/01/10 05:06:38;;;;;;;;;;;;;;;6.64;92.77;101517.97;5101665;28;19911;-89
2023/01/10 05:09:04;;;;;;;;;;;;;;;6.61;92.51;101512.84;5102791;28;20233;-89
2023/01/10 05:11:29;;;;;;;;;;;;;;;6.60;92.65;101503.28;5119080;28;19912;-89
2023/01/10 05:13:55;;;;;;;;;;;;;;;6.59;93.12;101512.00;5101767;28;19919;-89
2023/01/10 05:16:20;;;;;;;;;;;;;;;6.59;93.15;101504.19;5102204;28;20264;-89
2023/01/10 05:18:45;;;;;;;;;;;;;;;6.59;93.24;101509.41;5101488;28;19918;-89
2023/01/10 05:21:11;;;;;;;;;;;;;;;6.59;93.11;101515.47;5119179;28;19914;-89
2023/01/10 05:23:37;;;;;;;;;;;;;;;6.60;93.45;101518.91;5118224;28;19938;-89
2023/01/10 05:26:07;;;;;;;;;;;;;;;6.62;94.02;101527.56;5119214;28;20091;-89
2023/01/10 05:28:32;;;;;;;;;;;;;;;6.63;94.60;101535.34;5118492;28;19912;-89
2023/01/10 05:30:58;;;;;;;;;;;;;;;6.65;94.75;101533.56;5101778;28;20207;-89
2023/01/10 05:33:23;;;;;;;;;;;;;;;6.68;95.06;101538.75;5101245;28;20012;-89
2023/01/10 05:35:48;;;;;;;;;;;;;;;6.70;95.27;101541.34;5118678;28;20233;-89
2023/01/10 05:38:14;;;;;;;;;;;;;;;6.72;95.39;101536.97;5101637;28;19951;-89
2023/01/10 05:40:39;;;;;;;;;;;;;;;6.72;95.78;101543.03;5101053;28;19951;-89
2023/01/10 05:43:04;;;;;;;;;;;;;;;6.75;95.81;101549.06;5101921;28;19939;-89
2023/01/10 05:45:30;;;;;;;;;;;;;;;6.75;95.96;101555.16;5101455;28;20007;-89
2023/01/10 05:47:55;;;;;;;;;;;;;;;6.76;95.80;101553.41;5108971;28;19936;-89
2023/01/10 05:50:20;;;;;;;;;;;;;;;6.76;96.05;101551.66;5118067;28;20203;-89
2023/01/10 05:52:46;;;;;;;;;;;;;;;6.77;96.24;101549.91;5135269;27;19924;-89
2023/01/10 05:55:11;;;;;;;;;;;;;;;6.78;96.49;101549.03;5118223;28;19922;-89
2023/01/10 05:57:36;;;;;;;;;;;;;;;6.78;96.44;101554.25;5117733;28;19946;-89
2023/01/10 06:00:03;;;;;;;;;;;;;;;6.76;96.05;101549.06;5118257;28;20088;-89
2023/01/10 06:02:28;;;;;;;;;;;;;;;6.71;93.92;101559.53;5117990;28;19908;-89
2023/01/10 06:04:54;;;;;;;;;;;;;;;6.69;93.37;101560.44;5117670;28;20217;-89
2023/01/10 06:07:20;;;;;;;;;;;;;;;6.69;94.02;101563.03;5117926;28;19944;-89
2023/01/10 06:09:45;;;;;;;;;;;;;;;6.69;94.76;101563.91;5135013;27;19920;-89
2023/01/10 06:12:11;;;;;;;;;;;;;;;6.70;95.47;101567.38;5116746;28;19924;-89
2023/01/10 06:14:36;;;;;;;;;;;;;;;6.70;95.88;101557.81;5134682;27;19920;-89
2023/01/10 06:17:01;;;;;;;;;;;;;;;6.70;95.60;101550.00;5118115;28;19920;-90
2023/01/10 06:19:27;;;;;;;;;;;;;;;6.70;96.06;101557.81;5117727;28;19950;-89
2023/01/10 06:21:52;;;;;;;;;;;;;;;6.72;96.11;101569.06;5117337;28;20190;-89
2023/01/10 06:24:17;;;;;;;;;;;;;;;6.74;96.37;101571.66;5117742;28;20001;-89
2023/01/10 06:26:42;;;;;;;;;;;;;;;6.75;96.67;101569.91;5118586;27;20101;-89
2023/01/10 06:29:08;;;;;;;;;;;;;;;6.75;96.37;101568.19;5112616;27;19927;-89
2023/01/10 06:31:33;;;;;;;;;;;;;;;6.75;96.67;101560.38;5128663;27;19919;-89
2023/01/10 06:33:59;;;;;;;;;;;;;;;6.77;96.89;101568.13;5109827;27;19920;-89
2023/01/10 06:36:24;;;;;;;;;;;;;;;6.77;97.10;101582.03;5127046;27;19927;-89
2023/01/10 06:38:49;;;;;;;;;;;;;;;6.76;96.41;101579.44;5131161;27;20130;-89
2023/01/10 06:41:14;;;;;;;;;;;;;;;6.77;96.77;101594.16;5120982;27;19920;-89
2023/01/10 06:43:44;;;;;;;;;;;;;;;6.77;97.04;101597.66;5119790;27;19968;-89
2023/01/10 06:46:10;;;;;;;;;;;;;;;6.80;97.33;101604.56;5138001;27;20126;-89
2023/01/10 06:48:36;;;;;;;;;;;;;;;6.80;97.42;101604.56;5119823;27;19918;-89
2023/01/10 06:51:01;;;;;;;;;;;;;;;6.81;97.56;101612.34;5120575;27;20009;-89
2023/01/10 06:53:27;;;;;;;;;;;;;;;6.82;97.54;101605.38;5138742;27;19949;-89
2023/01/10 06:55:53;;;;;;;;;;;;;;;6.82;97.52;101615.81;5119738;27;19965;-89
2023/01/10 06:58:18;;;;;;;;;;;;;;;6.83;97.87;101614.94;5137589;27;19922;-89
2023/01/10 07:00:44;;;;;;;;;;;;;;;6.84;97.80;101619.25;5119861;27;19915;-89
2023/01/10 07:03:09;;;;;;;;;;;;;;;6.82;97.19;101628.81;5120692;27;20005;-89
2023/01/10 07:05:34;;;;;;;;;;;;;;;6.82;97.43;101634.91;5119381;27;19960;-89
2023/01/10 07:08:00;;;;;;;;;;;;;;;6.82;97.92;101645.31;5120365;27;19957;-89
2023/01/10 07:10:25;;;;;;;;;;;;;;;6.83;97.83;101641.81;5120200;27;20112;-89
2023/01/10 07:12:53;;;;;;;;;;;;;;;6.85;98.23;101652.22;5119945;27;20225;-89
2023/01/10 07:15:18;;;;;;;;;;;;;;;6.86;98.06;101657.41;5137311;27;19916;-89
2023/01/10 07:17:43;;;;;;;;;;;;;;;6.86;98.14;101664.38;5119897;27;19957;-89
2023/01/10 07:20:09;;;;;;;;;;;;;;;6.85;97.80;101660.03;5137086;27;19986;-89
2023/01/10 07:22:34;;;;;;;;;;;;;;;6.85;97.71;101644.41;5119188;27;19919;-89
2023/01/10 07:24:59;;;;;;;;;;;;;;;6.85;98.02;101650.47;5137212;27;19920;-89
2023/01/10 07:27:25;;;;;;;;;;;;;;;6.87;98.27;101645.25;5106169;28;19915;-89
2023/01/10 07:29:50;;;;;;;;;;;;;;;6.88;98.20;101644.38;5099135;28;19995;-88
2023/01/10 07:32:15;;;;;;;;;;;;;;;6.87;98.21;101659.13;5101154;28;19951;-89
2023/01/10 07:34:42;;;;;;;;;;;;;;;6.87;98.29;101666.94;5098159;28;20414;-89
2023/01/10 07:37:08;;;;;;;;;;;;;;;6.88;98.54;101667.81;5099550;28;19923;-89
2023/01/10 07:39:33;;;;;;;;;;;;;;;6.89;98.62;101666.91;5112152;28;19945;-89
2023/01/10 07:42:00;;;;;;;;;;;;;;;6.89;98.48;101669.53;5111058;28;20169;-89
2023/01/10 07:44:25;;;;;;;;;;;;;;;6.89;98.40;101666.91;5111127;28;19919;-89
2023/01/10 07:46:50;;;;;;;;;;;;;;;6.89;98.39;101666.91;5125530;28;19911;-89
2023/01/10 07:49:16;;;;;;;;;;;;;;;6.89;98.38;101670.41;5110655;28;20231;-89
2023/01/10 07:51:41;;;;;;;;;;;;;;;6.89;98.54;101667.81;5099099;28;19923;-89
2023/01/10 07:54:06;;;;;;;;;;;;;;;6.87;98.41;101666.94;5116664;28;19955;-89
2023/01/10 07:56:31;;;;;;;;;;;;;;;6.89;98.68;101674.72;5099143;28;19912;-89
2023/01/10 07:59:00;;;;;;;;;;;;;;;6.88;98.47;101665.22;5098949;28;19911;-89
2023/01/10 08:01:25;;;;;;;;;;;;;;;6.88;98.50;101668.69;5118849;28;20111;-89
2023/01/10 08:03:50;;;;;;;;;;;;;;;6.88;98.56;101668.69;5106397;28;19946;-89
2023/01/10 08:06:15;;;;;;;;;;;;;;;6.88;98.57;101673.03;5107543;28;19977;-89
2023/01/10 08:08:44;;;;;;;;;;;;;;;6.87;98.57;101674.75;5118398;27;20199;-89
2023/01/10 08:11:10;;;;;;;;;;;;;;;6.88;98.52;101680.84;5149225;27;19960;-89
2023/01/10 08:13:40;;;;;;;;;;;;;;;6.87;98.57;101685.16;5150289;27;19930;-89
2023/01/10 08:16:10;;;;;;;;;;;;;;;6.88;98.61;101683.44;5156560;27;20171;-89
2023/01/10 08:18:41;;;;;;;;;;;;;;;6.86;98.64;101680.84;5136599;27;19915;-89
2023/01/10 08:21:08;;;;;;;;;;;;;;;6.87;98.52;101679.09;5121380;27;19972;-89
2023/01/10 08:23:34;;;;;;;;;;;;;;;6.85;98.24;101665.25;5151222;27;19941;-89
2023/01/10 08:26:01;;;;;;;;;;;;;;;6.84;98.15;101664.41;5133246;27;19933;-89
2023/01/10 08:28:28;;;;;;;;;;;;;;;6.82;98.08;101666.16;5135657;27;19931;-89
2023/01/10 08:30:54;;;;;;;;;;;;;;;6.82;98.15;101658.34;5134877;27;19915;-89
2023/01/10 08:33:24;;;;;;;;;;;;;;;6.80;97.02;101660.06;5118068;27;20138;-89
2023/01/10 08:35:52;;;;;;;;;;;;;;;6.74;95.50;101660.16;5150674;27;19994;-89
2023/01/10 08:38:20;;;;;;;;;;;;;;;6.73;96.68;101661.91;5158222;27;20098;-89
2023/01/10 08:40:45;;;;;;;;;;;;;;;6.73;97.19;101661.91;5122305;27;19923;-89
2023/01/10 08:43:11;;;;;;;;;;;;;;;6.74;97.59;101667.97;5142491;27;19919;-89
2023/01/10 08:45:37;;;;;;;;;;;;;;;6.72;97.34;101660.19;5142378;27;19915;-89
2023/01/10 08:48:08;;;;;;;;;;;;;;;6.72;97.33;101659.31;5142881;27;20250;-89
2023/01/10 08:50:34;;;;;;;;;;;;;;;6.71;97.27;101661.06;5130718;27;19952;-89
2023/01/10 08:53:00;;;;;;;;;;;;;;;6.71;97.26;101650.66;5141041;27;20210;-89
2023/01/10 08:55:26;;;;;;;;;;;;;;;6.73;97.76;101653.22;5124145;27;19911;-89
2023/01/10 08:57:51;;;;;;;;;;;;;;;6.73;98.08;101646.28;5131059;27;19922;-89
2023/01/10 09:00:17;;;;;;;;;;;;;;;6.73;98.07;101646.28;5142881;27;19915;-89
2023/01/10 09:02:42;;;;;;;;;;;;;;;6.75;98.33;101648.00;5121328;27;19918;-89
2023/01/10 09:05:08;;;;;;;;;;;;;;;6.76;98.18;101652.34;5117665;27;19926;-89
2023/01/10 09:07:33;;;;;;;;;;;;;;;6.73;98.03;101648.00;5145146;27;19907;-89
2023/01/10 09:09:58;;;;;;;;;;;;;;;6.74;97.82;101647.16;5139071;27;19926;-89
2023/01/10 09:15:08;;;;;;;;;;;;;;;6.75;98.35;101645.41;5145138;27;19956;-89
2023/01/10 09:17:33;;;;;;;;;;;;;;;6.74;97.82;101639.34;5120408;27;20016;-89
2023/01/10 09:19:58;;;;;;;;;;;;;;;6.74;97.60;101634.13;5126528;27;19918;-89
2023/01/10 09:22:24;;;;;;;;;;;;;;;6.74;97.87;101636.72;5137708;27;20260;-89
2023/01/10 09:24:49;;;;;;;;;;;;;;;6.74;97.99;101641.94;5120745;27;19911;-89
2023/01/10 09:27:14;;;;;;;;;;;;;;;6.72;97.61;101631.53;5142254;27;19931;-89
2023/01/10 09:29:40;;;;;;;;;;;;;;;6.72;97.45;101634.16;5121127;27;19957;-89
2023/01/10 09:32:06;;;;;;;;;;;;;;;6.73;97.73;101635.00;5132119;27;19918;-89
2023/01/10 09:34:31;;;;;;;;;;;;;;;6.72;97.65;101639.34;5120947;27;19919;-89
2023/01/10 09:36:57;;;;;;;;;;;;;;;6.73;97.69;101648.00;5139220;27;19937;-89
2023/01/10 09:39:22;;;;;;;;;;;;;;;6.72;98.03;101639.34;5122395;27;19911;-89
2023/01/10 09:41:53;;;;;;;;;;;;;;;6.73;97.88;101645.41;5120057;27;19961;-89
2023/01/10 09:44:19;;;;;;;;;;;;;;;6.73;97.95;101650.63;5153576;27;20388;-90
2023/01/10 09:46:53;;;;;;;;;;;;;;;6.73;98.11;101648.00;5149660;27;19915;-89
2023/01/10 09:49:37;;;;;;;;;;;;;;;6.70;97.10;101651.53;5155792;27;20198;-89
2023/01/10 09:52:09;;;;;;;;;;;;;;;6.70;96.88;101645.47;5152449;27;20375;-89
2023/01/10 09:54:38;;;;;;;;;;;;;;;6.70;97.33;101637.66;5138358;27;19919;-89
2023/01/10 09:57:04;;;;;;;;;;;;;;;6.70;97.29;101641.13;5158859;27;19907;-89
2023/01/10 09:59:36;;;;;;;;;;;;;;;6.71;97.40;101637.66;5154387;27;20102;-89
2023/01/10 10:02:20;;;;;;;;;;;;;;;6.70;96.91;101635.06;5134681;27;19926;-89
2023/01/10 10:04:51;;;;;;;;;;;;;;;6.66;95.69;101638.59;5141065;27;19964;-89
2023/01/10 10:07:17;;;;;;;;;;;;;;;6.68;96.47;101629.00;5122043;27;19978;-89
2023/01/10 10:09:42;;;;;;;;;;;;;;;6.67;96.56;101629.88;5122149;27;19927;-88
2023/01/10 10:12:26;;;;;;;;;;;;;;;6.67;96.83;101633.31;5143940;27;19919;-89
2023/01/10 10:15:00;;;;;;;;;;;;;;;6.66;96.66;101630.78;5134592;27;19915;-89
2023/01/10 10:17:36;;;;;;;;;;;;;;;6.65;96.26;101619.47;5134361;27;19914;-89
2023/01/10 10:20:12;;;;;;;;;;;;;;;6.66;96.82;101622.97;5159684;27;20110;-89
2023/01/10 10:23:06;;;;;;;;;;;;;;;6.65;96.89;101618.63;5159402;27;19922;-89
2023/01/10 10:25:50;;;;;;;;;;;;;;;6.64;96.44;101614.28;5140826;27;19914;-89
2023/01/10 10:28:18;;;;;;;;;;;;;;;6.62;95.99;101611.72;5160258;27;19948;-89
2023/01/10 10:30:51;;;;;;;;;;;;;;;6.61;95.97;101610.00;5140894;27;19955;-89
2023/01/10 10:33:29;;;;;;;;;;;;;;;6.62;95.76;101603.03;5139590;27;20025;-89
2023/01/10 10:36:10;;;;;;;;;;;;;;;6.62;96.33;101606.53;5140391;27;19958;-89
2023/01/10 10:38:37;;;;;;;;;;;;;;;6.63;96.74;101599.56;5140880;27;20150;-89
2023/01/10 10:41:03;;;;;;;;;;;;;;;6.62;96.56;101588.31;5140776;27;19915;-89
2023/01/10 10:43:34;;;;;;;;;;;;;;;6.62;96.62;101588.31;5159237;27;19914;-89
2023/01/10 10:46:06;;;;;;;;;;;;;;;6.63;96.76;101582.19;5140962;27;19914;-89
2023/01/10 10:48:33;;;;;;;;;;;;;;;6.63;96.75;101582.19;5134156;27;19990;-89
2023/01/10 10:51:01;;;;;;;;;;;;;;;6.66;97.01;101576.09;5158299;27;19922;-89
2023/01/10 10:53:29;;;;;;;;;;;;;;;6.65;97.24;101564.81;5158527;27;19950;-88
2023/01/10 10:55:55;;;;;;;;;;;;;;;6.66;97.57;101569.16;5140449;27;19915;-88
2023/01/10 10:58:21;;;;;;;;;;;;;;;6.67;97.43;101559.59;5139821;27;20228;-89
2023/01/10 11:00:47;;;;;;;;;;;;;;;6.67;97.54;101557.84;5145582;27;19923;-89
2023/01/10 11:03:24;;;;;;;;;;;;;;;6.68;97.29;101559.56;5115122;27;19925;-90
2023/01/10 11:05:49;;;;;;;;;;;;;;;6.69;97.83;101555.22;5133917;27;19957;-88
2023/01/10 11:08:16;;;;;;;;;;;;;;;6.70;97.90;101554.34;5128117;27;19911;-88
2023/01/10 11:10:43;;;;;;;;;;;;;;;6.70;97.68;101543.94;5139705;27;19922;-90
2023/01/10 11:13:27;;;;;;;;;;;;;;;6.71;97.48;101543.03;5139490;27;19915;-88
2023/01/10 11:15:53;;;;;;;;;;;;;;;6.71;97.48;101543.94;5124867;27;20214;-89
2023/01/10 11:18:20;;;;;;;;;;;;;;;6.71;97.79;101536.13;5140443;27;19908;-89
2023/01/10 11:20:47;;;;;;;;;;;;;;;6.72;97.95;101530.00;5144896;27;19907;-88
2023/01/10 11:23:21;;;;;;;;;;;;;;;6.72;97.86;101530.00;5156223;27;19964;-89
2023/01/10 11:25:47;;;;;;;;;;;;;;;6.73;98.08;101513.53;5122115;27;19966;-89
2023/01/10 11:28:13;;;;;;;;;;;;;;;6.75;98.23;101518.72;5129483;27;19970;-88
2023/01/10 11:30:38;;;;;;;;;;;;;;;6.76;98.49;101517.81;5144843;27;19919;-89
2023/01/10 11:33:05;;;;;;;;;;;;;;;6.78;98.47;101512.59;5140466;27;19919;-88
2023/01/10 11:35:32;;;;;;;;;;;;;;;6.77;98.60;101511.75;5158275;27;19960;-88
2023/01/10 11:38:15;;;;;;;;;;;;;;;6.78;98.54;101513.44;5140432;27;19953;-89
2023/01/10 11:40:52;;;;;;;;;;;;;;;6.79;98.54;101511.72;5140097;27;20313;-89
2023/01/10 11:43:23;;;;;;;;;;;;;;;6.79;98.55;101499.56;5139229;27;19952;-89
2023/01/10 11:45:55;;;;;;;;;;;;;;;6.79;98.79;101486.53;5150402;27;19982;-89
2023/01/10 11:48:22;;;;;;;;;;;;;;;6.81;98.82;101487.38;5143890;27;20174;-89
2023/01/10 11:50:49;;;;;;;;;;;;;;;6.82;98.81;101477.81;5135520;27;19981;-89
2023/01/10 11:53:33;;;;;;;;;;;;;;;6.82;98.68;101477.81;5157663;27;19911;-88
2023/01/10 11:55:59;;;;;;;;;;;;;;;6.83;98.67;101471.75;5133404;27;19926;-89
2023/01/10 11:58:29;;;;;;;;;;;;;;;6.83;98.97;101476.94;5121253;27;19911;-88
2023/01/10 12:00:54;;;;;;;;;;;;;;;6.84;98.64;101468.22;5136739;27;19962;-89
2023/01/10 12:03:23;;;;;;;;;;;;;;;6.83;98.78;101462.19;5121141;27;19923;-88
2023/01/10 12:05:52;;;;;;;;;;;;;;;6.84;98.97;101455.22;5137930;27;20184;-89
2023/01/10 12:08:25;;;;;;;;;;;;;;;6.86;99.21;101459.53;5139774;27;20210;-88
2023/01/10 12:11:00;;;;;;;;;;;;;;;6.87;99.26;101453.41;5139088;27;19926;-88
2023/01/10 12:13:26;;;;;;;;;;;;;;;6.87;99.24;101461.22;5143186;27;19910;-89
2023/01/10 12:16:11;;;;;;;;;;;;;;;6.88;99.24;101451.69;5143435;27;19953;-89
2023/01/10 12:18:37;;;;;;;;;;;;;;;6.89;99.29;101450.81;5148869;27;19913;-88
2023/01/10 12:21:03;;;;;;;;;;;;;;;6.89;99.34;101446.47;5152858;27;19918;-89
2023/01/10 12:23:35;;;;;;;;;;;;;;;6.90;99.26;101435.16;5129963;27;19955;-88
2023/01/10 12:26:01;;;;;;;;;;;;;;;6.91;99.37;101433.41;5126897;27;20198;-88
2023/01/10 12:28:28;;;;;;;;;;;;;;;6.91;99.27;101429.09;5124082;27;19989;-89
2023/01/10 12:30:56;;;;;;;;;;;;;;;6.93;99.35;101431.66;5159548;27;20207;-89
2023/01/10 12:33:32;;;;;;;;;;;;;;;6.94;99.34;101429.91;5160585;27;19915;-88
2023/01/10 12:35:58;;;;;;;;;;;;;;;6.94;99.34;101432.50;5159134;27;19915;-89
2023/01/10 12:44:40;;;;;;;;;;;;;;;6.88;98.12;101403.09;5122096;27;19950;-89
2023/01/10 12:47:05;;;;;;;;;;;;;;;6.89;98.32;101412.63;5123070;27;19943;-89
2023/01/10 12:49:37;;;;;;;;;;;;;;;6.89;98.71;101402.22;5140780;27;19922;-89
2023/01/10 12:52:11;;;;;;;;;;;;;;;6.91;98.77;101399.56;5133801;27;19915;-91
2023/01/10 12:54:36;;;;;;;;;;;;;;;6.91;98.96;101399.56;5121700;27;19957;-89
2023/01/10 12:57:05;;;;;;;;;;;;;;;6.89;98.16;101396.13;5116556;27;20137;-88
2023/01/10 12:59:36;;;;;;;;;;;;;;;6.88;97.16;101397.03;5141083;27;20222;-89
2023/01/10 13:02:02;;;;;;;;;;;;;;;6.85;96.95;101379.69;5142094;27;19986;-90
2023/01/10 13:04:30;;;;;;;;;;;;;;;6.83;97.02;101386.66;5141617;27;20011;-88
2023/01/10 13:06:56;;;;;;;;;;;;;;;6.83;97.61;101372.81;5127639;27;20339;-88
2023/01/10 13:09:23;;;;;;;;;;;;;;;6.84;98.06;101361.47;5135927;27;19961;-88